Time,TemperatureF,DewpointF,PressureIn,WindDirection,WindDirectionDegrees,WindSpeedMPH,WindSpeedGustMPH,Humidity,HourlyPrecipIn,Conditions,Clouds,dailyrainin,SoftwareType,DateUTC
2013-04-17 00:00:00,65.6,61.3,29.98,ENE,77,0.0,0.0,86,0.00,,,0.00,VWS V14.01,2013-04-17 05:00:00,
2013-04-17 00:05:00,65.5,61.2,29.98,ENE,77,0.0,0.0,86,0.00,,,0.00,VWS V14.01,2013-04-17 05:05:00,
2013-04-17 00:10:00,65.3,61.0,29.98,ENE,77,0.0,1.0,86,0.00,,,0.00,VWS V14.01,2013-04-17 05:10:00,
2013-04-17 00:15:00,65.1,61.1,29.98,ENE,78,0.0,1.0,87,0.00,,,0.00,VWS V14.01,2013-04-17 05:15:00,
2013-04-17 00:20:00,64.4,60.8,29.98,ENE,75,1.5,1.5,88,0.00,,,0.00,VWS V14.01,2013-04-17 05:20:00,
2013-04-17 00:25:00,64.0,60.7,29.98,ENE,77,0.0,1.0,89,0.00,,,0.00,VWS V14.01,2013-04-17 05:25:00,
2013-04-17 00:30:00,63.7,60.4,29.98,ENE,75,1.5,1.5,89,0.00,,,0.00,VWS V14.01,2013-04-17 05:30:00,
2013-04-17 00:35:00,63.5,60.2,29.98,ENE,76,0.0,1.0,89,0.00,,,0.00,VWS V14.01,2013-04-17 05:35:00,
2013-04-17 00:40:00,63.4,60.4,29.98,ENE,75,0.0,1.0,90,0.00,,,0.00,VWS V14.01,2013-04-17 05:40:00,
2013-04-17 00:45:00,63.5,60.5,29.98,ENE,75,0.0,1.0,90,0.00,,,0.00,VWS V14.01,2013-04-17 05:45:00,
2013-04-17 00:50:00,63.4,60.4,29.98,ENE,75,0.0,1.0,90,0.00,,,0.00,VWS V14.01,2013-04-17 05:50:00,
2013-04-17 00:55:00,63.3,60.3,29.98,ENE,77,0.0,1.0,90,0.00,,,0.00,VWS V14.01,2013-04-17 05:55:00,
2013-04-17 01:00:00,63.2,59.9,29.98,ENE,75,0.0,1.0,89,0.00,,,0.00,VWS V14.01,2013-04-17 06:00:00,
2013-04-17 01:05:00,63.1,60.1,29.98,NE,35,0.0,2.0,90,0.00,,,0.00,VWS V14.01,2013-04-17 06:05:00,
2013-04-17 01:10:00,63.1,60.1,29.98,NE,40,3.0,3.0,90,0.00,,,0.00,VWS V14.01,2013-04-17 06:10:00,
2013-04-17 01:15:00,63.2,59.9,29.98,NE,53,1.5,3.0,89,0.00,,,0.00,VWS V14.01,2013-04-17 06:15:00,
2013-04-17 01:20:00,63.0,59.7,29.98,ENE,61,0.0,3.0,89,0.00,,,0.00,VWS V14.01,2013-04-17 06:20:00,
2013-04-17 01:25:00,62.9,59.6,29.98,ENE,61,0.0,3.0,89,0.00,,,0.00,VWS V14.01,2013-04-17 06:25:00,
2013-04-17 01:30:00,62.6,59.6,29.97,ENE,60,0.0,3.0,90,0.00,,,0.00,VWS V14.01,2013-04-17 06:30:00,
2013-04-17 01:35:00,62.4,59.4,29.97,ENE,62,0.0,3.0,90,0.00,,,0.00,VWS V14.01,2013-04-17 06:35:00,
2013-04-17 01:40:00,62.2,59.2,29.97,ENE,63,0.0,3.0,90,0.00,,,0.00,VWS V14.01,2013-04-17 06:40:00,
2013-04-17 01:45:00,62.0,59.3,29.97,ENE,62,0.0,3.0,91,0.00,,,0.00,VWS V14.01,2013-04-17 06:45:00,
2013-04-17 01:50:00,61.7,59.0,29.97,ENE,63,0.0,3.0,91,0.00,,,0.00,VWS V14.01,2013-04-17 06:50:00,
2013-04-17 01:55:00,61.4,59.1,29.97,ENE,62,0.0,3.0,92,0.00,,,0.00,VWS V14.01,2013-04-17 06:55:00,
2013-04-17 02:00:00,61.6,59.9,29.97,South,176,0.0,0.0,94,0.00,,,0.00,VWS V14.01,2013-04-17 07:00:00,
2013-04-17 02:05:00,61.8,60.1,29.97,South,174,0.0,0.0,94,0.00,,,0.00,VWS V14.01,2013-04-17 07:05:00,
2013-04-17 02:10:00,62.2,59.8,29.97,South,174,0.0,0.0,92,0.00,,,0.00,VWS V14.01,2013-04-17 07:10:00,
2013-04-17 02:15:00,62.1,59.5,29.97,WSW,257,0.0,2.0,91,0.00,,,0.00,VWS V14.01,2013-04-17 07:15:00,
2013-04-17 02:20:00,62.1,59.8,29.97,WSW,258,0.0,2.0,92,0.00,,,0.00,VWS V14.01,2013-04-17 07:20:00,
2013-04-17 02:25:00,62.5,60.5,29.97,SW,236,0.0,2.0,93,0.00,,,0.00,VWS V14.01,2013-04-17 07:25:00,
2013-04-17 02:30:00,63.1,61.0,29.97,East,97,1.5,2.0,93,0.00,,,0.00,VWS V14.01,2013-04-17 07:30:00,
2013-04-17 02:35:00,63.8,62.0,29.97,SE,134,1.5,2.0,94,0.00,,,0.00,VWS V14.01,2013-04-17 07:35:00,
2013-04-17 02:40:00,65.1,63.6,29.97,SSE,159,1.5,3.0,95,0.00,,,0.00,VWS V14.01,2013-04-17 07:40:00,
2013-04-17 02:45:00,67.1,65.3,29.97,South,188,15.0,15.0,94,0.00,,,0.00,VWS V14.01,2013-04-17 07:45:00,
2013-04-17 02:50:00,69.4,66.0,29.97,ESE,115,6.0,12.0,89,0.00,,,0.00,VWS V14.01,2013-04-17 07:50:00,
2013-04-17 02:55:00,70.7,66.3,29.96,SSW,201,4.5,12.0,86,0.00,,,0.00,VWS V14.01,2013-04-17 07:55:00,
2013-04-17 03:00:00,71.3,66.2,29.96,South,181,13.5,13.5,84,0.00,,,0.00,VWS V14.01,2013-04-17 08:00:00,
2013-04-17 03:05:00,71.7,66.6,29.96,South,172,13.5,13.5,84,0.00,,,0.00,VWS V14.01,2013-04-17 08:05:00,
2013-04-17 03:10:00,71.9,66.5,29.96,SW,226,3.0,13.0,83,0.00,,,0.00,VWS V14.01,2013-04-17 08:10:00,
2013-04-17 03:15:00,72.0,66.6,29.95,ESE,114,10.5,13.0,83,0.00,,,0.00,VWS V14.01,2013-04-17 08:15:00,
2013-04-17 03:20:00,72.0,66.6,29.96,South,174,10.5,13.0,83,0.00,,,0.00,VWS V14.01,2013-04-17 08:20:00,
2013-04-17 03:25:00,71.9,66.1,29.96,South,176,4.5,13.0,82,0.00,,,0.00,VWS V14.01,2013-04-17 08:25:00,
2013-04-17 03:30:00,71.9,66.1,29.96,SSW,211,4.5,13.0,82,0.00,,,0.00,VWS V14.01,2013-04-17 08:30:00,
2013-04-17 03:35:00,71.9,66.1,29.95,SSE,160,7.5,13.0,82,0.00,,,0.00,VWS V14.01,2013-04-17 08:35:00,
2013-04-17 03:40:00,71.9,66.1,29.96,SSE,162,6.0,13.0,82,0.00,,,0.00,VWS V14.01,2013-04-17 08:40:00,
2013-04-17 03:45:00,71.9,66.1,29.95,SSE,167,4.5,13.0,82,0.00,,,0.00,VWS V14.01,2013-04-17 08:45:00,
2013-04-17 03:50:00,71.8,66.0,29.95,SSE,163,10.5,13.0,82,0.00,,,0.00,VWS V14.01,2013-04-17 08:50:00,
2013-04-17 03:55:00,71.8,66.0,29.95,South,181,7.5,13.0,82,0.00,,,0.00,VWS V14.01,2013-04-17 08:55:00,
2013-04-17 04:00:00,71.8,66.0,29.95,SSW,204,10.5,10.5,82,0.00,,,0.00,VWS V14.01,2013-04-17 09:00:00,
2013-04-17 04:05:00,71.8,66.0,29.95,South,172,9.0,9.0,82,0.00,,,0.00,VWS V14.01,2013-04-17 09:05:00,
2013-04-17 04:10:00,71.8,66.0,29.95,SSE,165,4.5,9.0,82,0.00,,,0.00,VWS V14.01,2013-04-17 09:10:00,
2013-04-17 04:15:00,71.6,65.8,29.95,SSW,203,1.5,9.0,82,0.00,,,0.00,VWS V14.01,2013-04-17 09:15:00,
2013-04-17 04:20:00,71.4,65.6,29.95,SSW,194,1.5,9.0,82,0.00,,,0.00,VWS V14.01,2013-04-17 09:20:00,
2013-04-17 04:25:00,71.3,65.9,29.95,SSE,148,6.0,10.0,83,0.00,,,0.00,VWS V14.01,2013-04-17 09:25:00,
2013-04-17 04:30:00,71.2,65.8,29.95,SSW,203,3.0,10.0,83,0.00,,,0.00,VWS V14.01,2013-04-17 09:30:00,
2013-04-17 04:35:00,71.1,65.7,29.95,SSE,149,4.5,10.0,83,0.00,,,0.00,VWS V14.01,2013-04-17 09:35:00,
2013-04-17 04:40:00,71.1,65.7,29.95,South,180,6.0,10.0,83,0.00,,,0.00,VWS V14.01,2013-04-17 09:40:00,
2013-04-17 04:45:00,71.1,65.7,29.95,South,173,4.5,10.0,83,0.00,,,0.00,VWS V14.01,2013-04-17 09:45:00,
2013-04-17 04:50:00,71.0,65.9,29.95,SSE,151,3.0,10.0,84,0.00,,,0.00,VWS V14.01,2013-04-17 09:50:00,
2013-04-17 04:55:00,71.0,65.9,29.95,South,170,9.0,10.0,84,0.00,,,0.00,VWS V14.01,2013-04-17 09:55:00,
2013-04-17 05:00:00,71.1,66.0,29.95,South,176,4.5,13.0,84,0.00,,,0.00,VWS V14.01,2013-04-17 10:00:00,
2013-04-17 05:05:00,71.1,66.0,29.95,South,183,7.5,13.0,84,0.00,,,0.00,VWS V14.01,2013-04-17 10:05:00,
2013-04-17 05:10:00,71.1,66.0,29.95,SW,215,3.0,13.0,84,0.00,,,0.00,VWS V14.01,2013-04-17 10:10:00,
2013-04-17 05:15:00,71.1,66.0,29.95,SSE,155,6.0,13.0,84,0.00,,,0.00,VWS V14.01,2013-04-17 10:15:00,
2013-04-17 05:20:00,71.0,65.9,29.95,SSE,156,7.5,13.0,84,0.00,,,0.00,VWS V14.01,2013-04-17 10:20:00,
2013-04-17 05:25:00,71.0,66.3,29.95,SE,143,9.0,13.0,85,0.00,,,0.00,VWS V14.01,2013-04-17 10:25:00,
2013-04-17 05:30:00,70.9,66.2,29.95,SSE,156,12.0,13.0,85,0.00,,,0.00,VWS V14.01,2013-04-17 10:30:00,
2013-04-17 05:35:00,70.9,66.2,29.94,SSW,198,6.0,13.0,85,0.00,,,0.00,VWS V14.01,2013-04-17 10:35:00,
2013-04-17 05:40:00,70.9,66.2,29.94,SW,214,6.0,13.0,85,0.00,,,0.00,VWS V14.01,2013-04-17 10:40:00,
2013-04-17 05:45:00,70.9,66.2,29.95,SSW,198,7.5,13.0,85,0.00,,,0.00,VWS V14.01,2013-04-17 10:45:00,
2013-04-17 05:50:00,70.9,66.2,29.94,SSE,159,4.5,13.0,85,0.00,,,0.00,VWS V14.01,2013-04-17 10:50:00,
2013-04-17 05:55:00,70.9,66.2,29.95,South,172,6.0,13.0,85,0.00,,,0.00,VWS V14.01,2013-04-17 10:55:00,
2013-04-17 06:00:00,70.8,66.1,29.95,South,180,4.5,6.0,85,0.00,,,0.00,VWS V14.01,2013-04-17 11:00:00,
2013-04-17 06:05:00,70.7,66.0,29.95,SW,222,9.0,9.0,85,0.00,,,0.00,VWS V14.01,2013-04-17 11:05:00,
2013-04-17 06:10:00,70.7,66.3,29.95,SSW,196,9.0,9.0,86,0.00,,,0.00,VWS V14.01,2013-04-17 11:10:00,
2013-04-17 06:15:00,70.7,66.3,29.95,SSW,198,12.0,12.0,86,0.00,,,0.00,VWS V14.01,2013-04-17 11:15:00,
2013-04-17 06:20:00,70.9,66.2,29.96,South,173,9.0,11.0,85,0.00,,,0.00,VWS V14.01,2013-04-17 11:20:00,
2013-04-17 06:25:00,71.0,66.3,29.96,SW,221,7.5,11.0,85,0.00,,,0.00,VWS V14.01,2013-04-17 11:25:00,
2013-04-17 06:30:00,71.2,66.5,29.96,East,91,7.5,13.0,85,0.00,,,0.00,VWS V14.01,2013-04-17 11:30:00,
2013-04-17 06:35:00,71.2,66.5,29.96,SSE,168,6.0,13.0,85,0.00,,,0.00,VWS V14.01,2013-04-17 11:35:00,
2013-04-17 06:40:00,71.2,66.5,29.96,SW,236,10.5,13.0,85,0.00,,,0.00,VWS V14.01,2013-04-17 11:40:00,
2013-04-17 06:45:00,71.2,66.5,29.96,South,169,3.0,13.0,85,0.00,,,0.00,VWS V14.01,2013-04-17 11:45:00,
2013-04-17 06:50:00,71.2,66.5,29.96,South,186,3.0,13.0,85,0.00,,,0.00,VWS V14.01,2013-04-17 11:50:00,
2013-04-17 06:55:00,71.2,66.5,29.95,SSW,197,4.5,13.0,85,0.00,,,0.00,VWS V14.01,2013-04-17 11:55:00,
2013-04-17 07:00:00,71.2,66.5,29.95,SSE,166,6.0,13.0,85,0.00,,,0.00,VWS V14.01,2013-04-17 12:00:00,
2013-04-17 07:05:00,71.3,66.2,29.95,SSW,207,1.5,13.0,84,0.00,,,0.00,VWS V14.01,2013-04-17 12:05:00,
2013-04-17 07:10:00,71.3,66.2,29.95,South,188,7.5,13.0,84,0.00,,,0.00,VWS V14.01,2013-04-17 12:10:00,
2013-04-17 07:15:00,71.4,66.3,29.94,South,190,9.0,13.0,84,0.00,,,0.00,VWS V14.01,2013-04-17 12:15:00,
2013-04-17 07:20:00,71.4,66.3,29.95,ESE,122,7.5,13.0,84,0.00,,,0.00,VWS V14.01,2013-04-17 12:20:00,
2013-04-17 07:25:00,71.6,66.5,29.95,SE,131,3.0,13.0,84,0.00,,,0.00,VWS V14.01,2013-04-17 12:25:00,
2013-04-17 07:30:00,71.6,66.2,29.95,SSE,152,6.0,14.0,83,0.00,,,0.00,VWS V14.01,2013-04-17 12:30:00,
2013-04-17 07:35:00,71.7,66.3,29.95,SSE,159,7.5,14.0,83,0.00,,,0.00,VWS V14.01,2013-04-17 12:35:00,
2013-04-17 07:40:00,71.9,66.5,29.95,South,186,4.5,14.0,83,0.00,,,0.00,VWS V14.01,2013-04-17 12:40:00,
2013-04-17 07:45:00,72.1,66.7,29.95,South,176,4.5,14.0,83,0.00,,,0.00,VWS V14.01,2013-04-17 12:45:00,
2013-04-17 07:50:00,72.2,66.4,29.94,SSE,167,7.5,14.0,82,0.00,,,0.00,VWS V14.01,2013-04-17 12:50:00,
2013-04-17 07:55:00,72.5,66.7,29.94,SSE,150,6.0,14.0,82,0.00,,,0.00,VWS V14.01,2013-04-17 12:55:00,
2013-04-17 08:00:00,72.7,66.5,29.95,SSW,204,3.0,4.0,81,0.00,,,0.00,VWS V14.01,2013-04-17 13:00:00,
2013-04-17 08:05:00,72.6,66.8,29.95,SSE,158,6.0,8.0,82,0.00,,,0.00,VWS V14.01,2013-04-17 13:05:00,
2013-04-17 08:10:00,72.6,66.8,29.95,SSW,195,6.0,8.0,82,0.00,,,0.00,VWS V14.01,2013-04-17 13:10:00,
2013-04-17 08:15:00,72.8,67.0,29.95,SSE,158,7.5,8.0,82,0.00,,,0.00,VWS V14.01,2013-04-17 13:15:00,
2013-04-17 08:20:00,73.1,66.9,29.95,South,190,9.0,12.0,81,0.00,,,0.00,VWS V14.01,2013-04-17 13:20:00,
2013-04-17 08:25:00,73.8,67.2,29.95,South,172,7.5,12.0,80,0.00,,,0.00,VWS V14.01,2013-04-17 13:25:00,
2013-04-17 08:30:00,74.1,67.5,29.94,South,188,10.5,12.0,80,0.00,,,0.00,VWS V14.01,2013-04-17 13:30:00,
2013-04-17 08:35:00,74.5,67.6,29.94,SSW,195,12.0,12.0,79,0.00,,,0.00,VWS V14.01,2013-04-17 13:35:00,
2013-04-17 08:40:00,74.7,67.8,29.94,South,191,3.0,12.0,79,0.00,,,0.00,VWS V14.01,2013-04-17 13:40:00,
2013-04-17 08:45:00,74.8,67.9,29.94,South,191,6.0,15.0,79,0.00,,,0.00,VWS V14.01,2013-04-17 13:45:00,
2013-04-17 08:50:00,74.8,67.9,29.95,South,177,6.0,15.0,79,0.00,,,0.00,VWS V14.01,2013-04-17 13:50:00,
2013-04-17 08:55:00,74.7,67.8,29.95,ESE,110,15.0,15.0,79,0.00,,,0.00,VWS V14.01,2013-04-17 13:55:00,
2013-04-17 09:00:00,74.4,67.8,29.95,SSW,201,6.0,17.0,80,0.00,,,0.00,VWS V14.01,2013-04-17 14:00:00,
2013-04-17 09:05:00,74.3,68.1,29.95,SSE,160,16.5,21.0,81,0.00,,,0.00,VWS V14.01,2013-04-17 14:05:00,
2013-04-17 09:10:00,74.1,67.9,29.95,SSW,198,3.0,21.0,81,0.00,,,0.00,VWS V14.01,2013-04-17 14:10:00,
2013-04-17 09:15:00,74.1,68.3,29.94,SW,218,7.5,21.0,82,0.00,,,0.00,VWS V14.01,2013-04-17 14:15:00,
2013-04-17 09:20:00,74.2,68.4,29.94,SSW,212,9.0,21.0,82,0.00,,,0.00,VWS V14.01,2013-04-17 14:20:00,
2013-04-17 09:25:00,74.3,68.4,29.95,ENE,58,6.0,21.0,82,0.00,,,0.00,VWS V14.01,2013-04-17 14:25:00,
2013-04-17 09:30:00,74.5,68.3,29.95,SSE,150,16.5,21.0,81,0.00,,,0.00,VWS V14.01,2013-04-17 14:30:00,
2013-04-17 09:35:00,74.4,68.6,29.94,South,188,9.0,14.0,82,0.00,,,0.00,VWS V14.01,2013-04-17 14:35:00,
2013-04-17 09:40:00,74.5,68.7,29.95,South,176,7.5,14.0,82,0.00,,,0.00,VWS V14.01,2013-04-17 14:40:00,
2013-04-17 09:45:00,74.5,68.7,29.95,South,181,12.0,14.0,82,0.00,,,0.00,VWS V14.01,2013-04-17 14:45:00,
2013-04-17 09:50:00,74.6,68.8,29.95,South,169,9.0,14.0,82,0.00,,,0.00,VWS V14.01,2013-04-17 14:50:00,
2013-04-17 09:55:00,74.8,68.9,29.95,SSW,207,7.5,20.0,82,0.00,,,0.00,VWS V14.01,2013-04-17 14:55:00,
2013-04-17 10:00:00,74.9,68.7,29.94,SW,224,16.5,16.5,81,0.00,,,0.00,VWS V14.01,2013-04-17 15:00:00,
2013-04-17 10:05:00,75.0,68.8,29.95,South,188,12.0,13.0,81,0.00,,,0.00,VWS V14.01,2013-04-17 15:05:00,
2013-04-17 10:10:00,75.1,68.9,29.95,SSE,159,16.5,21.0,81,0.00,,,0.00,VWS V14.01,2013-04-17 15:10:00,
2013-04-17 10:15:00,75.0,68.8,29.95,SSE,158,7.5,21.0,81,0.00,,,0.00,VWS V14.01,2013-04-17 15:15:00,
2013-04-17 10:20:00,75.1,68.9,29.94,SSW,193,4.5,21.0,81,0.00,,,0.00,VWS V14.01,2013-04-17 15:20:00,
2013-04-17 10:25:00,75.5,69.3,29.94,SSW,207,7.5,21.0,81,0.00,,,0.00,VWS V14.01,2013-04-17 15:25:00,
2013-04-17 10:30:00,75.6,69.0,29.94,SSW,194,10.5,21.0,80,0.00,,,0.00,VWS V14.01,2013-04-17 15:30:00,
2013-04-17 10:35:00,75.5,68.9,29.94,SE,131,9.0,21.0,80,0.00,,,0.00,VWS V14.01,2013-04-17 15:35:00,
2013-04-17 10:40:00,75.6,69.4,29.93,SSW,198,1.5,21.0,81,0.00,,,0.00,VWS V14.01,2013-04-17 15:40:00,
2013-04-17 10:45:00,75.8,69.2,29.93,SSE,153,12.0,21.0,80,0.00,,,0.00,VWS V14.01,2013-04-17 15:45:00,
2013-04-17 10:50:00,75.7,69.1,29.93,South,179,12.0,21.0,80,0.00,,,0.00,VWS V14.01,2013-04-17 15:50:00,
2013-04-17 10:55:00,75.7,69.1,29.92,South,190,15.0,21.0,80,0.00,,,0.00,VWS V14.01,2013-04-17 15:55:00,
2013-04-17 11:00:00,75.8,69.2,29.92,SSE,160,7.5,21.0,80,0.00,,,0.00,VWS V14.01,2013-04-17 16:00:00,
2013-04-17 11:05:00,76.0,69.0,29.91,East,101,7.5,21.0,79,0.00,,,0.00,VWS V14.01,2013-04-17 16:05:00,
2013-04-17 11:10:00,76.3,68.9,29.91,SSE,164,16.5,21.0,78,0.00,,,0.00,VWS V14.01,2013-04-17 16:10:00,
2013-04-17 11:15:00,76.7,68.9,29.91,ESE,108,19.5,21.0,77,0.00,,,0.00,VWS V14.01,2013-04-17 16:15:00,
2013-04-17 11:20:00,77.2,69.1,29.91,South,187,13.5,21.0,76,0.00,,,0.00,VWS V14.01,2013-04-17 16:20:00,
2013-04-17 11:25:00,77.7,69.2,29.91,SSW,195,6.0,21.0,75,0.00,,,0.00,VWS V14.01,2013-04-17 16:25:00,
2013-04-17 11:30:00,78.2,69.2,29.91,SSE,150,28.5,28.5,74,0.00,,,0.00,VWS V14.01,2013-04-17 16:30:00,
2013-04-17 11:35:00,78.5,69.5,29.91,SW,218,6.0,21.0,74,0.00,,,0.00,VWS V14.01,2013-04-17 16:35:00,
2013-04-17 11:40:00,78.6,69.2,29.91,SSE,166,13.5,21.0,73,0.00,,,0.00,VWS V14.01,2013-04-17 16:40:00,
2013-04-17 11:45:00,78.2,68.8,29.91,South,174,10.5,21.0,73,0.00,,,0.00,VWS V14.01,2013-04-17 16:45:00,
2013-04-17 11:50:00,78.1,68.8,29.91,SSW,210,10.5,21.0,73,0.00,,,0.00,VWS V14.01,2013-04-17 16:50:00,
2013-04-17 11:55:00,78.0,68.7,29.91,South,172,10.5,21.0,73,0.00,,,0.00,VWS V14.01,2013-04-17 16:55:00,
2013-04-17 11:59:00,78.0,68.7,29.92,SSE,160,10.5,21.0,73,0.00,,,0.00,VWS V14.01,2013-04-17 16:59:00,
2013-04-17 12:00:00,78.0,68.7,29.92,SSE,160,10.5,21.0,73,0.00,,,0.00,VWS V14.01,2013-04-17 17:00:00,
2013-04-17 12:04:00,77.5,68.2,29.91,SSW,204,4.5,20.0,73,0.00,,,0.00,VWS V14.01,2013-04-17 17:04:00,
2013-04-17 12:09:00,78.0,69.1,29.91,South,191,18.0,20.0,74,0.00,,,0.00,VWS V14.01,2013-04-17 17:09:00,
2013-04-17 12:14:00,78.6,68.8,29.90,SE,129,7.5,20.0,72,0.00,,,0.00,VWS V14.01,2013-04-17 17:14:00,
2013-04-17 12:19:00,78.5,68.7,29.90,SSE,162,7.5,20.0,72,0.00,,,0.00,VWS V14.01,2013-04-17 17:19:00,
2013-04-17 12:24:00,78.6,68.4,29.90,SSE,163,6.0,20.0,71,0.00,,,0.00,VWS V14.01,2013-04-17 17:24:00,
2013-04-17 12:29:00,78.4,68.6,29.90,SE,141,9.0,20.0,72,0.00,,,0.00,VWS V14.01,2013-04-17 17:29:00,
2013-04-17 12:34:00,78.3,68.1,29.90,SW,233,4.5,20.0,71,0.00,,,0.00,VWS V14.01,2013-04-17 17:34:00,
2013-04-17 12:39:00,78.3,67.7,29.90,South,191,12.0,20.0,70,0.00,,,0.00,VWS V14.01,2013-04-17 17:39:00,
2013-04-17 12:44:00,78.6,68.4,29.90,SSW,193,12.0,20.0,71,0.00,,,0.00,VWS V14.01,2013-04-17 17:44:00,
2013-04-17 12:49:00,78.9,67.9,29.89,SSW,210,15.0,20.0,69,0.00,,,0.00,VWS V14.01,2013-04-17 17:49:00,
2013-04-17 12:54:00,78.5,68.3,29.89,SW,236,9.0,20.0,71,0.00,,,0.00,VWS V14.01,2013-04-17 17:54:00,
2013-04-17 12:59:00,79.2,68.2,29.89,South,170,13.5,20.0,69,0.00,,,0.00,VWS V14.01,2013-04-17 17:59:00,
2013-04-17 13:00:00,78.0,68.7,29.92,SSE,160,10.5,21.0,73,0.00,,,0.00,VWS V15.00,2013-04-17 18:00:00,
2013-04-17 13:04:00,79.5,68.0,29.89,South,169,12.0,20.0,68,0.00,,,0.00,VWS V14.01,2013-04-17 18:04:00,
2013-04-17 13:09:00,79.4,68.3,29.89,SE,138,9.0,20.0,69,0.00,,,0.00,VWS V14.01,2013-04-17 18:09:00,
2013-04-17 13:14:00,79.6,67.7,29.88,SSW,193,15.0,20.0,67,0.00,,,0.00,VWS V14.01,2013-04-17 18:14:00,
2013-04-17 13:19:00,79.7,68.2,29.88,WSW,240,10.5,20.0,68,0.00,,,0.00,VWS V14.01,2013-04-17 18:19:00,
2013-04-17 13:24:00,80.0,68.1,29.88,SSE,148,22.5,22.5,67,0.00,,,0.00,VWS V14.01,2013-04-17 18:24:00,
2013-04-17 13:29:00,80.1,67.7,29.87,South,176,3.0,20.0,66,0.00,,,0.00,VWS V14.01,2013-04-17 18:29:00,
2013-04-17 13:34:00,80.2,67.8,29.87,South,183,12.0,20.0,66,0.00,,,0.00,VWS V14.01,2013-04-17 18:34:00,
2013-04-17 13:39:00,80.4,68.0,29.87,SSE,153,10.5,20.0,66,0.00,,,0.00,VWS V14.01,2013-04-17 18:39:00,
2013-04-17 13:44:00,80.9,68.5,29.87,South,176,3.0,20.0,66,0.00,,,0.00,VWS V14.01,2013-04-17 18:44:00,
2013-04-17 13:49:00,81.1,67.8,29.87,SSW,197,13.5,20.0,64,0.00,,,0.00,VWS V14.01,2013-04-17 18:49:00,
2013-04-17 13:54:00,81.1,67.3,29.87,South,191,10.5,20.0,63,0.00,,,0.00,VWS V14.01,2013-04-17 18:54:00,
2013-04-17 13:59:00,81.2,67.9,29.86,SW,219,16.5,20.0,64,0.00,,,0.00,VWS V14.01,2013-04-17 18:59:00,
2013-04-17 14:00:00,81.3,67.5,29.86,SW,215,7.5,20.0,63,0.00,,,0.00,VWS V14.01,2013-04-17 19:00:00,
2013-04-17 14:04:00,81.3,68.0,29.86,SW,218,9.0,15.0,64,0.00,,,0.00,VWS V14.01,2013-04-17 19:04:00,
2013-04-17 14:09:00,81.4,67.6,29.86,South,191,10.5,19.0,63,0.00,,,0.00,VWS V14.01,2013-04-17 19:09:00,
2013-04-17 14:14:00,81.6,67.3,29.85,SSW,197,7.5,19.0,62,0.00,,,0.00,VWS V14.01,2013-04-17 19:14:00,
2013-04-17 14:19:00,82.3,67.5,29.85,South,169,27.0,27.0,61,0.00,,,0.00,VWS V14.01,2013-04-17 19:19:00,
2013-04-17 14:24:00,82.1,66.8,29.85,SSW,210,10.5,20.0,60,0.00,,,0.00,VWS V14.01,2013-04-17 19:24:00,
2013-04-17 14:29:00,82.1,67.3,29.85,SSW,200,9.0,20.0,61,0.00,,,0.00,VWS V14.01,2013-04-17 19:29:00,
2013-04-17 14:34:00,82.1,66.4,29.84,SSW,211,6.0,20.0,59,0.00,,,0.00,VWS V14.01,2013-04-17 19:34:00,
2013-04-17 14:39:00,81.9,66.7,29.84,South,191,9.0,20.0,60,0.00,,,0.00,VWS V14.01,2013-04-17 19:39:00,
2013-04-17 14:44:00,81.6,66.4,29.84,SE,136,10.5,20.0,60,0.00,,,0.00,VWS V14.01,2013-04-17 19:44:00,
2013-04-17 14:49:00,81.8,66.6,29.83,South,188,7.5,20.0,60,0.00,,,0.00,VWS V14.01,2013-04-17 19:49:00,
2013-04-17 14:54:00,82.2,66.5,29.83,South,183,12.0,20.0,59,0.00,,,0.00,VWS V14.01,2013-04-17 19:54:00,
2013-04-17 14:59:00,82.0,66.3,29.83,SSE,167,4.5,20.0,59,0.00,,,0.00,VWS V14.01,2013-04-17 19:59:00,
2013-04-17 15:00:00,81.3,67.5,29.86,SW,215,7.5,20.0,63,0.00,,,0.00,VWS V15.00,2013-04-17 20:00:00,
2013-04-17 15:04:00,82.1,66.8,29.83,SSW,200,15.0,27.0,60,0.00,,,0.00,VWS V14.01,2013-04-17 20:04:00,
2013-04-17 15:09:00,82.0,66.3,29.83,SSE,162,19.5,27.0,59,0.00,,,0.00,VWS V14.01,2013-04-17 20:09:00,
2013-04-17 15:14:00,82.4,66.7,29.83,SW,223,6.0,27.0,59,0.00,,,0.00,VWS V14.01,2013-04-17 20:14:00,
2013-04-17 15:19:00,82.7,67.4,29.82,East,89,3.0,27.0,60,0.00,,,0.00,VWS V14.01,2013-04-17 20:19:00,
2013-04-17 15:24:00,82.7,66.9,29.83,SE,129,12.0,27.0,59,0.00,,,0.00,VWS V14.01,2013-04-17 20:24:00,
2013-04-17 15:29:00,82.9,66.6,29.82,South,180,12.0,27.0,58,0.00,,,0.00,VWS V14.01,2013-04-17 20:29:00,
2013-04-17 15:34:00,82.6,67.3,29.82,South,175,12.0,27.0,60,0.00,,,0.00,VWS V14.01,2013-04-17 20:34:00,
2013-04-17 15:39:00,81.9,66.2,29.81,SW,214,10.5,27.0,59,0.00,,,0.00,VWS V14.01,2013-04-17 20:39:00,
2013-04-17 15:44:00,81.7,66.5,29.81,South,184,9.0,27.0,60,0.00,,,0.00,VWS V14.01,2013-04-17 20:44:00,
2013-04-17 15:49:00,81.6,66.4,29.80,WSW,249,12.0,27.0,60,0.00,,,0.00,VWS V14.01,2013-04-17 20:49:00,
2013-04-17 15:54:00,81.9,66.7,29.80,South,187,18.0,27.0,60,0.00,,,0.00,VWS V14.01,2013-04-17 20:54:00,
2013-04-17 15:59:00,82.2,66.5,29.80,SSE,162,13.5,27.0,59,0.00,,,0.00,VWS V14.01,2013-04-17 20:59:00,
2013-04-17 16:00:00,82.2,66.5,29.80,SW,235,9.0,27.0,59,0.00,,,0.00,VWS V14.01,2013-04-17 21:00:00,
2013-04-17 16:04:00,82.6,66.3,29.80,South,186,15.0,16.0,58,0.00,,,0.00,VWS V14.01,2013-04-17 21:04:00,
2013-04-17 16:09:00,82.5,66.2,29.79,SSW,210,7.5,17.0,58,0.00,,,0.00,VWS V14.01,2013-04-17 21:09:00,
2013-04-17 16:14:00,82.3,66.1,29.79,South,187,22.5,24.0,58,0.00,,,0.00,VWS V14.01,2013-04-17 21:14:00,
2013-04-17 16:19:00,82.3,66.1,29.79,South,179,12.0,24.0,58,0.00,,,0.00,VWS V14.01,2013-04-17 21:19:00,
2013-04-17 16:24:00,82.8,66.5,29.79,South,180,10.5,24.0,58,0.00,,,0.00,VWS V14.01,2013-04-17 21:24:00,
2013-04-17 16:29:00,82.9,66.1,29.78,South,170,13.5,24.0,57,0.00,,,0.00,VWS V14.01,2013-04-17 21:29:00,
2013-04-17 16:34:00,82.7,65.9,29.78,SSW,200,15.0,24.0,57,0.00,,,0.00,VWS V14.01,2013-04-17 21:34:00,
2013-04-17 16:39:00,82.5,65.2,29.78,SSW,204,6.0,24.0,56,0.00,,,0.00,VWS V14.01,2013-04-17 21:39:00,
2013-04-17 16:44:00,82.8,65.5,29.78,South,179,12.0,24.0,56,0.00,,,0.00,VWS V14.01,2013-04-17 21:44:00,
2013-04-17 16:49:00,82.7,65.4,29.78,South,173,12.0,24.0,56,0.00,,,0.00,VWS V14.01,2013-04-17 21:49:00,
2013-04-17 16:54:00,82.6,65.8,29.78,South,179,9.0,24.0,57,0.00,,,0.00,VWS V14.01,2013-04-17 21:54:00,
2013-04-17 16:59:00,82.5,65.8,29.78,SSE,153,7.5,24.0,57,0.00,,,0.00,VWS V14.01,2013-04-17 21:59:00,
2013-04-17 17:00:00,82.2,66.5,29.80,SW,235,9.0,27.0,59,0.00,,,0.00,VWS V15.00,2013-04-17 22:00:00,
2013-04-17 17:04:00,82.4,65.1,29.78,South,178,15.0,24.0,56,0.00,,,0.00,VWS V14.01,2013-04-17 22:04:00,
2013-04-17 17:09:00,82.4,65.7,29.77,SSE,166,7.5,24.0,57,0.00,,,0.00,VWS V14.01,2013-04-17 22:09:00,
2013-04-17 17:14:00,82.5,65.2,29.77,SW,214,7.5,24.0,56,0.00,,,0.00,VWS V14.01,2013-04-17 22:14:00,
2013-04-17 17:19:00,82.3,65.6,29.77,SSW,195,12.0,24.0,57,0.00,,,0.00,VWS V14.01,2013-04-17 22:19:00,
2013-04-17 17:24:00,82.0,65.3,29.77,South,183,9.0,24.0,57,0.00,,,0.00,VWS V14.01,2013-04-17 22:24:00,
2013-04-17 17:29:00,81.8,65.6,29.77,South,174,13.5,24.0,58,0.00,,,0.00,VWS V14.01,2013-04-17 22:29:00,
2013-04-17 17:34:00,81.7,65.0,29.77,SSW,194,7.5,24.0,57,0.00,,,0.00,VWS V14.01,2013-04-17 22:34:00,
2013-04-17 17:39:00,81.5,65.3,29.77,South,184,4.5,24.0,58,0.00,,,0.00,VWS V14.01,2013-04-17 22:39:00,
2013-04-17 17:44:00,81.8,65.6,29.77,South,191,6.0,24.0,58,0.00,,,0.00,VWS V14.01,2013-04-17 22:44:00,
2013-04-17 17:49:00,81.8,65.1,29.76,South,186,9.0,24.0,57,0.00,,,0.00,VWS V14.01,2013-04-17 22:49:00,
2013-04-17 17:54:00,81.8,65.1,29.77,South,190,10.5,24.0,57,0.00,,,0.00,VWS V14.01,2013-04-17 22:54:00,
2013-04-17 17:59:00,81.8,65.1,29.77,SE,139,7.5,24.0,57,0.00,,,0.00,VWS V14.01,2013-04-17 22:59:00,
2013-04-17 18:00:00,81.8,65.1,29.77,SSW,212,13.5,24.0,57,0.00,,,0.00,VWS V14.01,2013-04-17 23:00:00,
2013-04-17 18:04:00,81.5,64.8,29.77,SSW,198,10.5,17.0,57,0.00,,,0.00,VWS V14.01,2013-04-17 23:04:00,
2013-04-17 18:09:00,81.2,65.0,29.77,SW,219,6.0,17.0,58,0.00,,,0.00,VWS V14.01,2013-04-17 23:09:00,
2013-04-17 18:14:00,80.8,65.2,29.77,South,184,6.0,18.0,59,0.00,,,0.00,VWS V14.01,2013-04-17 23:14:00,
2013-04-17 18:19:00,80.5,64.9,29.77,SW,226,15.0,25.0,59,0.00,,,0.00,VWS V14.01,2013-04-17 23:19:00,
2013-04-17 18:24:00,80.3,65.2,29.76,South,172,7.5,25.0,60,0.00,,,0.00,VWS V14.01,2013-04-17 23:24:00,
2013-04-17 18:29:00,80.2,65.1,29.76,SW,217,16.5,25.0,60,0.00,,,0.00,VWS V14.01,2013-04-17 23:29:00,
2013-04-17 18:34:00,80.2,65.1,29.76,SSW,193,15.0,25.0,60,0.00,,,0.00,VWS V14.01,2013-04-17 23:34:00,
2013-04-17 18:39:00,80.2,65.1,29.75,South,187,7.5,25.0,60,0.00,,,0.00,VWS V14.01,2013-04-17 23:39:00,
2013-04-17 18:44:00,80.1,65.0,29.75,SSW,201,10.5,25.0,60,0.00,,,0.00,VWS V14.01,2013-04-17 23:44:00,
2013-04-17 18:49:00,80.0,65.4,29.75,South,180,9.0,25.0,61,0.00,,,0.00,VWS V14.01,2013-04-17 23:49:00,
2013-04-17 18:54:00,79.9,64.8,29.75,South,188,15.0,25.0,60,0.00,,,0.00,VWS V14.01,2013-04-17 23:54:00,
2013-04-17 18:59:00,79.8,64.7,29.75,SSW,195,21.0,25.0,60,0.00,,,0.00,VWS V14.01,2013-04-17 23:59:00,
2013-04-17 19:00:00,81.8,65.1,29.77,SSW,212,13.5,24.0,57,0.00,,,0.00,VWS V15.00,2013-04-18 00:00:00,
2013-04-17 19:04:00,79.6,65.0,29.75,South,181,4.5,25.0,61,0.00,,,0.00,VWS V14.01,2013-04-18 00:04:00,
2013-04-17 19:09:00,79.4,65.3,29.75,SW,222,6.0,25.0,62,0.00,,,0.00,VWS V14.01,2013-04-18 00:09:00,
2013-04-17 19:14:00,79.3,65.2,29.75,South,170,3.0,25.0,62,0.00,,,0.00,VWS V14.01,2013-04-18 00:14:00,
2013-04-17 19:19:00,79.1,65.0,29.75,South,173,4.5,25.0,62,0.00,,,0.00,VWS V14.01,2013-04-18 00:19:00,
2013-04-17 19:24:00,78.9,64.8,29.75,South,177,10.5,25.0,62,0.00,,,0.00,VWS V14.01,2013-04-18 00:24:00,
2013-04-17 19:29:00,78.8,64.7,29.74,SSE,165,12.0,25.0,62,0.00,,,0.00,VWS V14.01,2013-04-18 00:29:00,
2013-04-17 19:34:00,78.8,65.2,29.74,South,170,6.0,25.0,63,0.00,,,0.00,VWS V14.01,2013-04-18 00:34:00,
2013-04-17 19:39:00,78.6,65.0,29.74,SSE,156,6.0,25.0,63,0.00,,,0.00,VWS V14.01,2013-04-18 00:39:00,
2013-04-17 19:44:00,78.5,64.9,29.74,South,173,9.0,25.0,63,0.00,,,0.00,VWS V14.01,2013-04-18 00:44:00,
2013-04-17 19:49:00,78.5,64.9,29.74,SSE,165,15.0,25.0,63,0.00,,,0.00,VWS V14.01,2013-04-18 00:49:00,
2013-04-17 19:54:00,78.3,65.1,29.74,SE,131,4.5,25.0,64,0.00,,,0.00,VWS V14.01,2013-04-18 00:54:00,
2013-04-17 19:59:00,78.1,64.9,29.74,SSW,201,10.5,25.0,64,0.00,,,0.00,VWS V14.01,2013-04-18 00:59:00,
2013-04-17 20:00:00,78.1,64.9,29.74,SSE,165,7.5,25.0,64,0.00,,,0.00,VWS V14.01,2013-04-18 01:00:00,
2013-04-17 20:04:00,78.0,64.8,29.74,SE,146,6.0,8.0,64,0.00,,,0.00,VWS V14.01,2013-04-18 01:04:00,
2013-04-17 20:09:00,77.9,64.8,29.74,South,190,3.0,9.0,64,0.00,,,0.00,VWS V14.01,2013-04-18 01:09:00,
2013-04-17 20:14:00,77.9,64.8,29.73,South,189,9.0,14.0,64,0.00,,,0.00,VWS V14.01,2013-04-18 01:14:00,
2013-04-17 20:19:00,77.9,64.8,29.74,SSE,166,6.0,14.0,64,0.00,,,0.00,VWS V14.01,2013-04-18 01:19:00,
2013-04-17 20:24:00,77.9,64.8,29.74,South,183,4.5,14.0,64,0.00,,,0.00,VWS V14.01,2013-04-18 01:24:00,
2013-04-17 20:29:00,77.8,64.7,29.74,SSE,166,12.0,14.0,64,0.00,,,0.00,VWS V14.01,2013-04-18 01:29:00,
2013-04-17 20:34:00,77.8,64.7,29.74,SSE,159,4.5,14.0,64,0.00,,,0.00,VWS V14.01,2013-04-18 01:34:00,
2013-04-17 20:39:00,77.7,64.6,29.74,South,188,3.0,14.0,64,0.00,,,0.00,VWS V14.01,2013-04-18 01:39:00,
2013-04-17 20:44:00,77.7,64.6,29.73,SSE,162,10.5,17.0,64,0.00,,,0.00,VWS V14.01,2013-04-18 01:44:00,
2013-04-17 20:49:00,77.7,64.6,29.73,SW,219,7.5,17.0,64,0.00,,,0.00,VWS V14.01,2013-04-18 01:49:00,
2013-04-17 20:54:00,77.8,64.2,29.73,South,191,21.0,21.0,63,0.00,,,0.00,VWS V14.01,2013-04-18 01:54:00,
2013-04-17 20:59:00,77.7,64.6,29.73,SSW,200,16.5,21.0,64,0.00,,,0.00,VWS V14.01,2013-04-18 01:59:00,
2013-04-17 21:00:00,78.1,64.9,29.74,SSE,165,7.5,25.0,64,0.00,,,0.00,VWS V15.00,2013-04-18 02:00:00,
2013-04-17 21:04:00,77.7,64.6,29.73,SSW,208,6.0,21.0,64,0.00,,,0.00,VWS V14.01,2013-04-18 02:04:00,
2013-04-17 21:09:00,77.5,64.4,29.74,SSW,204,13.5,21.0,64,0.00,,,0.00,VWS V14.01,2013-04-18 02:09:00,
2013-04-17 21:14:00,77.5,64.4,29.74,SSW,194,10.5,21.0,64,0.00,,,0.00,VWS V14.01,2013-04-18 02:14:00,
2013-04-17 21:19:00,77.4,64.3,29.74,SSW,197,7.5,21.0,64,0.00,,,0.00,VWS V14.01,2013-04-18 02:19:00,
2013-04-17 21:24:00,77.4,64.3,29.74,South,181,10.5,21.0,64,0.00,,,0.00,VWS V14.01,2013-04-18 02:24:00,
2013-04-17 21:29:00,77.4,64.3,29.74,SSW,207,22.5,22.5,64,0.00,,,0.00,VWS V14.01,2013-04-18 02:29:00,
2013-04-17 21:34:00,77.4,64.3,29.74,SSW,203,6.0,21.0,64,0.00,,,0.00,VWS V14.01,2013-04-18 02:34:00,
2013-04-17 21:39:00,77.3,64.2,29.74,SSW,203,6.0,21.0,64,0.00,,,0.00,VWS V14.01,2013-04-18 02:39:00,
2013-04-17 21:44:00,77.3,64.2,29.74,ESE,109,15.0,21.0,64,0.00,,,0.00,VWS V14.01,2013-04-18 02:44:00,
2013-04-17 21:49:00,77.3,64.2,29.73,SSW,208,7.5,21.0,64,0.00,,,0.00,VWS V14.01,2013-04-18 02:49:00,
2013-04-17 21:54:00,77.2,64.5,29.73,SSW,194,12.0,21.0,65,0.00,,,0.00,VWS V14.01,2013-04-18 02:54:00,
2013-04-17 21:59:00,77.1,64.4,29.74,SSW,205,7.5,21.0,65,0.00,,,0.00,VWS V14.01,2013-04-18 02:59:00,
2013-04-17 22:00:00,77.1,64.4,29.74,South,176,3.0,21.0,65,0.00,,,0.00,VWS V14.01,2013-04-18 03:00:00,
2013-04-17 22:04:00,77.0,64.3,29.74,SSE,163,31.5,31.5,65,0.00,,,0.00,VWS V14.01,2013-04-18 03:04:00,
2013-04-17 22:09:00,77.2,64.5,29.74,South,176,6.0,21.0,65,0.00,,,0.00,VWS V14.01,2013-04-18 03:09:00,
2013-04-17 22:14:00,77.1,64.4,29.73,SSW,201,15.0,21.0,65,0.00,,,0.00,VWS V14.01,2013-04-18 03:14:00,
2013-04-17 22:19:00,77.1,64.4,29.72,SE,143,7.5,21.0,65,0.00,,,0.00,VWS V14.01,2013-04-18 03:19:00,
2013-04-17 22:24:00,77.1,64.4,29.72,WSW,250,13.5,21.0,65,0.00,,,0.00,VWS V14.01,2013-04-18 03:24:00,
2013-04-17 22:29:00,77.1,64.4,29.72,SE,145,27.0,27.0,65,0.00,,,0.00,VWS V14.01,2013-04-18 03:29:00,
2013-04-17 22:34:00,77.1,64.4,29.71,SSW,198,10.5,23.0,65,0.00,,,0.00,VWS V14.01,2013-04-18 03:34:00,
2013-04-17 22:39:00,77.1,64.4,29.71,SSE,167,18.0,23.0,65,0.00,,,0.00,VWS V14.01,2013-04-18 03:39:00,
2013-04-17 22:44:00,77.2,64.5,29.71,SW,222,9.0,23.0,65,0.00,,,0.00,VWS V14.01,2013-04-18 03:44:00,
2013-04-17 22:49:00,77.1,64.9,29.71,SSW,207,9.0,23.0,66,0.00,,,0.00,VWS V14.01,2013-04-18 03:49:00,
2013-04-17 22:54:00,77.0,64.8,29.70,SSE,152,4.5,23.0,66,0.00,,,0.00,VWS V14.01,2013-04-18 03:54:00,
2013-04-17 22:59:00,76.9,64.7,29.70,South,179,4.5,23.0,66,0.00,,,0.00,VWS V14.01,2013-04-18 03:59:00,
2013-04-17 23:00:00,77.1,64.4,29.74,South,176,3.0,21.0,65,0.00,,,0.00,VWS V15.00,2013-04-18 04:00:00,
2013-04-17 23:01:00,76.9,64.7,29.70,SW,215,10.5,23.0,66,0.00,,,0.00,VWS V14.01,2013-04-18 04:01:00,
2013-04-17 23:06:00,76.9,64.7,29.70,South,186,13.5,23.0,66,0.00,,,0.00,VWS V14.01,2013-04-18 04:06:00,
2013-04-17 23:11:00,76.8,65.0,29.70,SSE,160,7.5,23.0,67,0.00,,,0.00,VWS V14.01,2013-04-18 04:11:00,
2013-04-17 23:16:00,76.6,64.8,29.69,South,171,13.5,23.0,67,0.00,,,0.00,VWS V14.01,2013-04-18 04:16:00,
2013-04-17 23:21:00,76.4,64.6,29.69,SSE,160,9.0,23.0,67,0.00,,,0.00,VWS V14.01,2013-04-18 04:21:00,
2013-04-17 23:26:00,76.4,65.1,29.69,SW,222,13.5,23.0,68,0.00,,,0.00,VWS V14.01,2013-04-18 04:26:00,
2013-04-17 23:31:00,76.2,65.7,29.70,South,181,7.5,23.0,70,0.00,,,0.00,VWS V14.01,2013-04-18 04:31:00,
2013-04-17 23:36:00,75.8,65.3,29.70,SW,214,6.0,23.0,70,0.00,,,0.00,VWS V14.01,2013-04-18 04:36:00,
2013-04-17 23:41:00,75.7,65.2,29.69,SW,226,9.0,23.0,70,0.00,,,0.00,VWS V14.01,2013-04-18 04:41:00,
2013-04-17 23:46:00,75.7,65.2,29.70,SW,222,19.5,23.0,70,0.00,,,0.00,VWS V14.01,2013-04-18 04:46:00,
2013-04-17 23:51:00,75.6,65.5,29.69,South,172,7.5,23.0,71,0.00,,,0.00,VWS V14.01,2013-04-18 04:51:00,
2013-04-17 23:56:00,75.6,65.5,29.69,SSW,200,13.5,23.0,71,0.00,,,0.00,VWS V14.01,2013-04-18 04:56:00,